Time;durP1;ratioP1;P1;durP2;ratioP2;P2;SDS_P1;SDS_P2;PMS_P1;PMS_P2;Temp;Humidity;BMP_temperature;BMP_pressure;BME280_temperature;BME280_humidity;BME280_pressure;Samples;Min_cycle;Max_cycle;Signal;HPM_P1;HPM_P2
2022/08/19 00:00:20;;;;;;;;;;;;;;;;;;2114641;28;20020;-44
2022/08/19 00:01:21;;;;;;;;;;;;;;;;;;2114607;28;19924;-45
2022/08/19 00:02:30;;;;;;;;;;;;;;;;;;2114619;28;19924;-45
2022/08/19 00:03:31;;;;;;;;;;;;;;;;;;2114682;28;19930;-44
2022/08/19 00:04:32;;;;;;;;;;;;;;;;;;2114519;28;20193;-44
2022/08/19 00:05:33;;;;;;;;;;;;;;;;;;2114593;28;19992;-44
2022/08/19 00:06:35;;;;;;;;;;;;;;;;;;2114415;28;19975;-44
2022/08/19 00:07:35;;;;;;;;;;;;;;;;;;2114527;28;20357;-45
2022/08/19 00:08:36;;;;;;;;;;;;;;;;;;2114541;28;19972;-45
2022/08/19 00:09:37;;;;;;;;;;;;;;;;;;2114655;28;19958;-46
2022/08/19 00:10:38;;;;;;;;;;;;;;;;;;2114582;28;19963;-45
2022/08/19 00:11:40;;;;;;;;;;;;;;;;;;2108727;28;20023;-46
2022/08/19 00:12:41;;;;;;;;;;;;;;;;;;2106108;28;19928;-44
2022/08/19 00:13:48;;;;;;;;;;;;;;;;;;2106066;28;19959;-44
2022/08/19 00:14:49;;;;;;;;;;;;;;;;;;2106325;28;19924;-43
2022/08/19 00:15:49;;;;;;;;;;;;;;;;;;2106037;28;19950;-43
2022/08/19 00:16:53;;;;;;;;;;;;;;;;;;2105972;28;19979;-43
2022/08/19 00:17:54;;;;;;;;;;;;;;;;;;2106026;28;19928;-43
2022/08/19 00:18:55;;;;;;;;;;;;;;;;;;2106348;28;19928;-44
2022/08/19 00:19:56;;;;;;;;;;;;;;;;;;2105948;28;19973;-43
2022/08/19 00:20:57;;;;;;;;;;;;;;;;;;2106127;28;19927;-43
2022/08/19 00:21:58;;;;;;;;;;;;;;;;;;2106007;28;20019;-43
2022/08/19 00:22:59;;;;;;;;;;;;;;;;;;2105879;28;19924;-44
2022/08/19 00:24:00;;;;;;;;;;;;;;;;;;2105938;28;19931;-44
2022/08/19 00:25:01;;;;;;;;;;;;;;;;;;2106087;28;19927;-44
2022/08/19 00:26:02;;;;;;;;;;;;;;;;;;2106081;28;20019;-43
2022/08/19 00:27:03;;;;;;;;;;;;;;;;;;2105923;28;19924;-43
2022/08/19 00:28:24;;;;;;;;;;;;;;;;;;2106113;28;19924;-43
2022/08/19 00:29:25;;;;;;;;;;;;;;;;;;2106099;28;20315;-43
2022/08/19 00:30:27;;;;;;;;;;;;;;;;;;2106280;28;20397;-44
2022/08/19 00:31:28;;;;;;;;;;;;;;;;;;2110742;28;20452;-47
2022/08/19 00:32:29;;;;;;;;;;;;;;;;;;2115754;28;20015;-46
2022/08/19 00:33:32;;;;;;;;;;;;;;;;;;2115921;28;20300;-45
2022/08/19 00:34:33;;;;;;;;;;;;;;;;;;2116064;28;20022;-45
2022/08/19 00:35:34;;;;;;;;;;;;;;;;;;2115855;28;20392;-45
2022/08/19 00:36:34;;;;;;;;;;;;;;;;;;2115761;28;20293;-44
2022/08/19 00:37:35;;;;;;;;;;;;;;;;;;2115929;28;19928;-44
2022/08/19 00:38:36;;;;;;;;;;;;;;;;;;2115984;28;20064;-44
2022/08/19 00:39:38;;;;;;;;;;;;;;;;;;2115787;28;19938;-44
2022/08/19 00:40:39;;;;;;;;;;;;;;;;;;2115801;28;19923;-44
2022/08/19 00:41:40;;;;;;;;;;;;;;;;;;2115860;28;19924;-45
2022/08/19 00:42:41;;;;;;;;;;;;;;;;;;2115668;28;20015;-44
2022/08/19 00:43:42;;;;;;;;;;;;;;;;;;2115830;28;20330;-45
2022/08/19 00:44:43;;;;;;;;;;;;;;;;;;2115821;28;19959;-44
2022/08/19 00:45:44;;;;;;;;;;;;;;;;;;2116103;28;19932;-44
2022/08/19 00:46:44;;;;;;;;;;;;;;;;;;2115744;28;20068;-44
2022/08/19 00:47:45;;;;;;;;;;;;;;;;;;2115831;28;19950;-44
2022/08/19 00:48:46;;;;;;;;;;;;;;;;;;2115673;28;20375;-45
2022/08/19 00:49:50;;;;;;;;;;;;;;;;;;2115814;28;19931;-45
2022/08/19 00:50:51;;;;;;;;;;;;;;;;;;2115799;28;20061;-44
2022/08/19 00:51:52;;;;;;;;;;;;;;;;;;2115654;28;20065;-44
2022/08/19 00:52:54;;;;;;;;;;;;;;;;;;2115812;28;20547;-44
2022/08/19 00:53:55;;;;;;;;;;;;;;;;;;2115825;28;19973;-46
2022/08/19 00:54:56;;;;;;;;;;;;;;;;;;2115894;28;19928;-45
2022/08/19 00:55:57;;;;;;;;;;;;;;;;;;2115717;28;20341;-45
2022/08/19 00:56:58;;;;;;;;;;;;;;;;;;2115596;28;19959;-44
2022/08/19 00:57:59;;;;;;;;;;;;;;;;;;2115902;28;19939;-43
2022/08/19 00:58:59;;;;;;;;;;;;;;;;;;2115870;28;20317;-43
2022/08/19 01:00:02;;;;;;;;;;;;;;;;;;2115685;28;19927;-43
2022/08/19 01:01:03;;;;;;;;;;;;;;;;;;2115788;28;19952;-43
2022/08/19 01:02:04;;;;;;;;;;;;;;;;;;2115636;28;19931;-44
2022/08/19 01:03:05;;;;;;;;;;;;;;;;;;2115656;28;20050;-44
2022/08/19 01:04:06;;;;;;;;;;;;;;;;;;2115821;28;20026;-44
2022/08/19 01:05:07;;;;;;;;;;;;;;;;;;2115725;28;20018;-43
2022/08/19 01:06:08;;;;;;;;;;;;;;;;;;2115506;28;20334;-43
2022/08/19 01:07:08;;;;;;;;;;;;;;;;;;2115714;28;19948;-43
2022/08/19 01:08:10;;;;;;;;;;;;;;;;;;2115647;28;20292;-43
2022/08/19 01:09:10;;;;;;;;;;;;;;;;;;2115825;28;20380;-45
2022/08/19 01:10:11;;;;;;;;;;;;;;;;;;2115654;28;19955;-44
2022/08/19 01:11:12;;;;;;;;;;;;;;;;;;2113558;28;20034;-44
2022/08/19 01:12:13;;;;;;;;;;;;;;;;;;2107251;28;20015;-43
2022/08/19 01:13:14;;;;;;;;;;;;;;;;;;2107297;28;20011;-43
2022/08/19 01:14:16;;;;;;;;;;;;;;;;;;2107212;28;19928;-43
2022/08/19 01:15:17;;;;;;;;;;;;;;;;;;2107387;28;20023;-44
2022/08/19 01:16:18;;;;;;;;;;;;;;;;;;2107102;28;19924;-43
2022/08/19 01:17:19;;;;;;;;;;;;;;;;;;2107313;28;19924;-43
2022/08/19 01:18:20;;;;;;;;;;;;;;;;;;2107346;28;19928;-43
2022/08/19 01:19:20;;;;;;;;;;;;;;;;;;2107142;28;19931;-43
2022/08/19 01:20:21;;;;;;;;;;;;;;;;;;2107393;28;19924;-44
2022/08/19 01:21:22;;;;;;;;;;;;;;;;;;2107028;28;20345;-44
2022/08/19 01:22:23;;;;;;;;;;;;;;;;;;2107075;28;19924;-44
2022/08/19 01:23:42;;;;;;;;;;;;;;;;;;2107274;28;19930;-44
2022/08/19 01:24:43;;;;;;;;;;;;;;;;;;2106985;28;20327;-44
2022/08/19 01:25:49;;;;;;;;;;;;;;;;;;2107233;28;19924;-44
2022/08/19 01:26:50;;;;;;;;;;;;;;;;;;2106960;28;20007;-44
2022/08/19 01:27:51;;;;;;;;;;;;;;;;;;2112316;28;20380;-44
2022/08/19 01:28:54;;;;;;;;;;;;;;;;;;2115811;28;19946;-43
2022/08/19 01:29:54;;;;;;;;;;;;;;;;;;2115457;28;20385;-43
2022/08/19 01:30:55;;;;;;;;;;;;;;;;;;2115524;28;19935;-43
2022/08/19 01:31:56;;;;;;;;;;;;;;;;;;2115426;28;19934;-44
2022/08/19 01:32:58;;;;;;;;;;;;;;;;;;2115729;28;19924;-43
2022/08/19 01:33:59;;;;;;;;;;;;;;;;;;2115516;28;20018;-43
2022/08/19 01:35:01;;;;;;;;;;;;;;;;;;2115623;28;19924;-43
2022/08/19 01:36:02;;;;;;;;;;;;;;;;;;2115314;28;20425;-44
2022/08/19 01:37:03;;;;;;;;;;;;;;;;;;2115362;28;19977;-43
2022/08/19 01:38:07;;;;;;;;;;;;;;;;;;2115559;28;20482;-43
2022/08/19 01:39:08;;;;;;;;;;;;;;;;;;2115325;28;20010;-43
2022/08/19 01:40:09;;;;;;;;;;;;;;;;;;2115605;28;20011;-43
2022/08/19 01:41:10;;;;;;;;;;;;;;;;;;2115326;28;19967;-44
2022/08/19 01:42:12;;;;;;;;;;;;;;;;;;2115393;28;19973;-44
2022/08/19 01:43:13;;;;;;;;;;;;;;;;;;2114538;28;20007;-43
2022/08/19 01:44:14;;;;;;;;;;;;;;;;;;2115518;28;20018;-44
2022/08/19 01:45:19;;;;;;;;;;;;;;;;;;2115707;28;20372;-43
2022/08/19 01:46:20;;;;;;;;;;;;;;;;;;2115518;28;19974;-43
2022/08/19 01:47:25;;;;;;;;;;;;;;;;;;2115667;28;19955;-43
2022/08/19 01:48:26;;;;;;;;;;;;;;;;;;2115378;28;19989;-43
2022/08/19 01:49:27;;;;;;;;;;;;;;;;;;2115448;28;20551;-43
2022/08/19 01:50:28;;;;;;;;;;;;;;;;;;2115351;28;20577;-43
2022/08/19 01:51:30;;;;;;;;;;;;;;;;;;2115228;28;20006;-43
2022/08/19 01:52:30;;;;;;;;;;;;;;;;;;2115331;28;20014;-44
2022/08/19 01:53:31;;;;;;;;;;;;;;;;;;2115556;28;20062;-43
2022/08/19 01:54:34;;;;;;;;;;;;;;;;;;2115520;28;19930;-43
2022/08/19 01:55:35;;;;;;;;;;;;;;;;;;2115484;28;19924;-47
2022/08/19 01:56:36;;;;;;;;;;;;;;;;;;2115379;28;20014;-44
2022/08/19 01:57:37;;;;;;;;;;;;;;;;;;2115365;28;19928;-44
2022/08/19 01:58:38;;;;;;;;;;;;;;;;;;2115320;28;20022;-45
2022/08/19 01:59:39;;;;;;;;;;;;;;;;;;2115490;28;19923;-43
2022/08/19 02:00:40;;;;;;;;;;;;;;;;;;2115162;28;20281;-44
2022/08/19 02:01:41;;;;;;;;;;;;;;;;;;2115246;28;19930;-45
2022/08/19 02:02:41;;;;;;;;;;;;;;;;;;2115401;28;19931;-43
2022/08/19 02:03:53;;;;;;;;;;;;;;;;;;2115192;28;19924;-44
2022/08/19 02:04:54;;;;;;;;;;;;;;;;;;2115433;28;20024;-43
2022/08/19 02:05:55;;;;;;;;;;;;;;;;;;2115317;28;19923;-43
2022/08/19 02:06:56;;;;;;;;;;;;;;;;;;2115123;28;19950;-43
2022/08/19 02:07:57;;;;;;;;;;;;;;;;;;2115498;28;19959;-44
2022/08/19 02:08:57;;;;;;;;;;;;;;;;;;2115259;28;20451;-44
2022/08/19 02:09:58;;;;;;;;;;;;;;;;;;2115195;28;20230;-43
2022/08/19 02:10:59;;;;;;;;;;;;;;;;;;2114963;28;20022;-44
2022/08/19 02:12:00;;;;;;;;;;;;;;;;;;2106844;28;19970;-42
2022/08/19 02:13:01;;;;;;;;;;;;;;;;;;2106825;28;19928;-43
2022/08/19 02:14:02;;;;;;;;;;;;;;;;;;2106972;28;20007;-44
2022/08/19 02:15:03;;;;;;;;;;;;;;;;;;2106789;28;19964;-42
2022/08/19 02:16:04;;;;;;;;;;;;;;;;;;2106889;28;19977;-43
2022/08/19 02:17:04;;;;;;;;;;;;;;;;;;2106697;28;19993;-43
2022/08/19 02:18:07;;;;;;;;;;;;;;;;;;2106922;28;20362;-42
2022/08/19 02:19:07;;;;;;;;;;;;;;;;;;2106807;28;20281;-42
2022/08/19 02:20:08;;;;;;;;;;;;;;;;;;2106760;28;19931;-43
2022/08/19 02:21:10;;;;;;;;;;;;;;;;;;2106791;28;20008;-42
2022/08/19 02:22:11;;;;;;;;;;;;;;;;;;2106756;28;20288;-42
2022/08/19 02:23:12;;;;;;;;;;;;;;;;;;2106608;28;19924;-43
2022/08/19 02:24:14;;;;;;;;;;;;;;;;;;2113265;28;19946;-42
2022/08/19 02:25:14;;;;;;;;;;;;;;;;;;2114969;28;19930;-42
2022/08/19 02:26:15;;;;;;;;;;;;;;;;;;2115253;28;19932;-42
2022/08/19 02:27:16;;;;;;;;;;;;;;;;;;2115148;28;19947;-44
2022/08/19 02:28:17;;;;;;;;;;;;;;;;;;2115015;28;19923;-42
2022/08/19 02:29:19;;;;;;;;;;;;;;;;;;2115089;28;19953;-43
2022/08/19 02:30:20;;;;;;;;;;;;;;;;;;2115025;28;20600;-43
2022/08/19 02:31:21;;;;;;;;;;;;;;;;;;2115109;28;19924;-43
2022/08/19 02:32:22;;;;;;;;;;;;;;;;;;2115131;28;19930;-42
2022/08/19 02:33:23;;;;;;;;;;;;;;;;;;2115065;28;19923;-43
2022/08/19 02:34:24;;;;;;;;;;;;;;;;;;2115170;28;19976;-43
2022/08/19 02:35:25;;;;;;;;;;;;;;;;;;2115095;28;19931;-42
2022/08/19 02:36:26;;;;;;;;;;;;;;;;;;2115150;28;19928;-42
2022/08/19 02:38:46;;;;;;;;;;;;;;;;;;2115050;28;20288;-45
2022/08/19 02:39:55;;;;;;;;;;;;;;;;;;2115184;28;19928;-43
2022/08/19 02:40:55;;;;;;;;;;;;;;;;;;2114941;28;19992;-43
2022/08/19 02:41:59;;;;;;;;;;;;;;;;;;2115037;28;19981;-42
2022/08/19 02:43:00;;;;;;;;;;;;;;;;;;2114904;28;20388;-43
2022/08/19 02:44:01;;;;;;;;;;;;;;;;;;2115069;28;20002;-44
2022/08/19 02:45:22;;;;;;;;;;;;;;;;;;2114990;28;20426;-42
2022/08/19 02:46:23;;;;;;;;;;;;;;;;;;2115198;28;19924;-44
2022/08/19 02:47:24;;;;;;;;;;;;;;;;;;2115076;28;19949;-44
2022/08/19 02:48:25;;;;;;;;;;;;;;;;;;2114947;28;20037;-44
2022/08/19 02:49:26;;;;;;;;;;;;;;;;;;2115185;28;19928;-44
2022/08/19 02:50:27;;;;;;;;;;;;;;;;;;2115075;28;20010;-43
2022/08/19 02:51:27;;;;;;;;;;;;;;;;;;2115027;28;19924;-45
2022/08/19 02:52:28;;;;;;;;;;;;;;;;;;2114944;28;20425;-44
2022/08/19 02:53:29;;;;;;;;;;;;;;;;;;2115157;28;20006;-44
2022/08/19 02:54:30;;;;;;;;;;;;;;;;;;2114756;28;20315;-43
2022/08/19 02:55:31;;;;;;;;;;;;;;;;;;2114879;28;20396;-44
2022/08/19 02:56:32;;;;;;;;;;;;;;;;;;2114937;28;19930;-44
2022/08/19 02:57:33;;;;;;;;;;;;;;;;;;2115137;28;19924;-42
2022/08/19 02:58:34;;;;;;;;;;;;;;;;;;2114990;28;19976;-43
2022/08/19 02:59:35;;;;;;;;;;;;;;;;;;2115006;28;19927;-43
2022/08/19 03:00:36;;;;;;;;;;;;;;;;;;2115099;28;19927;-43
2022/08/19 03:01:37;;;;;;;;;;;;;;;;;;2114804;28;20058;-43
2022/08/19 03:02:38;;;;;;;;;;;;;;;;;;2115083;28;19923;-45
2022/08/19 03:03:39;;;;;;;;;;;;;;;;;;2115022;28;19924;-44
2022/08/19 03:04:40;;;;;;;;;;;;;;;;;;2114781;28;20303;-43
2022/08/19 03:05:40;;;;;;;;;;;;;;;;;;2115083;28;19924;-43
2022/08/19 03:06:56;;;;;;;;;;;;;;;;;;2114963;28;19942;-45
2022/08/19 03:08:03;;;;;;;;;;;;;;;;;;2114864;28;20376;-43
2022/08/19 03:09:04;;;;;;;;;;;;;;;;;;2114803;28;20010;-42
2022/08/19 03:10:05;;;;;;;;;;;;;;;;;;2114981;28;19930;-42
2022/08/19 03:11:06;;;;;;;;;;;;;;;;;;2113499;28;20007;-43
2022/08/19 03:12:07;;;;;;;;;;;;;;;;;;2106759;28;20014;-42
2022/08/19 03:13:08;;;;;;;;;;;;;;;;;;2106513;28;19924;-46
2022/08/19 03:14:09;;;;;;;;;;;;;;;;;;2106454;28;19993;-43
2022/08/19 03:15:10;;;;;;;;;;;;;;;;;;2106374;28;20307;-44
2022/08/19 03:16:11;;;;;;;;;;;;;;;;;;2106393;28;20022;-44
2022/08/19 03:17:12;;;;;;;;;;;;;;;;;;2106249;28;19995;-45
2022/08/19 03:18:13;;;;;;;;;;;;;;;;;;2106423;28;20349;-43
2022/08/19 03:19:14;;;;;;;;;;;;;;;;;;2106368;28;20022;-42
2022/08/19 03:20:14;;;;;;;;;;;;;;;;;;2110630;28;20006;-43
2022/08/19 03:21:16;;;;;;;;;;;;;;;;;;2114615;28;19970;-42
2022/08/19 03:22:16;;;;;;;;;;;;;;;;;;2114761;28;20010;-44
2022/08/19 03:23:17;;;;;;;;;;;;;;;;;;2114682;28;19924;-43
2022/08/19 03:24:18;;;;;;;;;;;;;;;;;;2114705;28;20407;-43
2022/08/19 03:25:19;;;;;;;;;;;;;;;;;;2114711;28;19969;-43
2022/08/19 03:26:20;;;;;;;;;;;;;;;;;;2114751;28;20041;-42
2022/08/19 03:27:21;;;;;;;;;;;;;;;;;;2114749;28;19973;-43
2022/08/19 03:28:22;;;;;;;;;;;;;;;;;;2114902;28;20077;-44
2022/08/19 03:29:23;;;;;;;;;;;;;;;;;;2114656;28;20428;-43
2022/08/19 03:30:30;;;;;;;;;;;;;;;;;;2114759;28;19924;-43
2022/08/19 03:31:31;;;;;;;;;;;;;;;;;;2114670;28;19924;-43
2022/08/19 03:32:43;;;;;;;;;;;;;;;;;;2114820;28;20054;-42
2022/08/19 03:33:53;;;;;;;;;;;;;;;;;;2114674;28;19923;-43
2022/08/19 03:34:53;;;;;;;;;;;;;;;;;;2114640;28;20002;-43
2022/08/19 03:35:54;;;;;;;;;;;;;;;;;;2114698;28;19974;-43
2022/08/19 03:36:55;;;;;;;;;;;;;;;;;;2114747;28;19928;-43
2022/08/19 03:37:56;;;;;;;;;;;;;;;;;;2114661;28;20155;-42
2022/08/19 03:38:57;;;;;;;;;;;;;;;;;;2114817;28;19974;-43
2022/08/19 03:40:00;;;;;;;;;;;;;;;;;;2114869;28;20399;-44
2022/08/19 03:41:01;;;;;;;;;;;;;;;;;;2114728;28;19935;-44
2022/08/19 03:42:02;;;;;;;;;;;;;;;;;;2114578;28;20387;-44
2022/08/19 03:43:24;;;;;;;;;;;;;;;;;;2114490;28;19931;-44
2022/08/19 03:44:25;;;;;;;;;;;;;;;;;;2114924;28;20229;-42
2022/08/19 03:45:26;;;;;;;;;;;;;;;;;;2114763;28;20018;-43
2022/08/19 03:46:26;;;;;;;;;;;;;;;;;;2114653;28;20018;-43
2022/08/19 03:47:27;;;;;;;;;;;;;;;;;;2114616;28;20446;-43
2022/08/19 03:48:29;;;;;;;;;;;;;;;;;;2114628;28;20448;-43
2022/08/19 03:49:31;;;;;;;;;;;;;;;;;;2114563;28;20353;-44
2022/08/19 03:50:31;;;;;;;;;;;;;;;;;;2114780;28;19966;-43
2022/08/19 03:51:32;;;;;;;;;;;;;;;;;;2114484;28;19959;-43
2022/08/19 03:52:33;;;;;;;;;;;;;;;;;;2114680;28;20038;-43
2022/08/19 03:53:34;;;;;;;;;;;;;;;;;;2114709;28;19924;-44
2022/08/19 03:54:35;;;;;;;;;;;;;;;;;;2114764;28;20098;-44
2022/08/19 03:55:36;;;;;;;;;;;;;;;;;;2114660;28;20003;-42
2022/08/19 03:56:37;;;;;;;;;;;;;;;;;;2114468;28;19967;-43
2022/08/19 03:57:38;;;;;;;;;;;;;;;;;;2114557;28;20274;-43
2022/08/19 03:58:39;;;;;;;;;;;;;;;;;;2114547;28;20065;-42
2022/08/19 03:59:40;;;;;;;;;;;;;;;;;;2114613;28;19943;-42
2022/08/19 04:00:41;;;;;;;;;;;;;;;;;;2114550;28;20002;-43
2022/08/19 04:01:42;;;;;;;;;;;;;;;;;;2114462;28;19930;-44
2022/08/19 04:02:43;;;;;;;;;;;;;;;;;;2114383;28;20372;-43
2022/08/19 04:03:58;;;;;;;;;;;;;;;;;;2114695;28;19928;-41
2022/08/19 04:04:59;;;;;;;;;;;;;;;;;;2114531;28;20410;-42
2022/08/19 04:06:00;;;;;;;;;;;;;;;;;;2114577;28;19962;-42
2022/08/19 04:07:01;;;;;;;;;;;;;;;;;;2115605;28;19934;-43
2022/08/19 04:08:02;;;;;;;;;;;;;;;;;;2116106;28;19971;-43
2022/08/19 04:09:02;;;;;;;;;;;;;;;;;;2116063;28;20002;-43
2022/08/19 04:10:03;;;;;;;;;;;;;;;;;;2116201;28;19946;-42
2022/08/19 04:11:05;;;;;;;;;;;;;;;;;;2115049;28;20038;-44
2022/08/19 04:12:06;;;;;;;;;;;;;;;;;;2107449;28;19924;-42
2022/08/19 04:13:08;;;;;;;;;;;;;;;;;;2107972;28;19981;-43
2022/08/19 04:14:09;;;;;;;;;;;;;;;;;;2107579;28;19960;-43
2022/08/19 04:15:10;;;;;;;;;;;;;;;;;;2107654;28;20015;-46
2022/08/19 04:16:12;;;;;;;;;;;;;;;;;;2109327;28;19924;-43
2022/08/19 04:17:13;;;;;;;;;;;;;;;;;;2116227;28;20018;-43
2022/08/19 04:18:15;;;;;;;;;;;;;;;;;;2116047;28;20027;-43
2022/08/19 04:19:16;;;;;;;;;;;;;;;;;;2116119;28;20071;-43
2022/08/19 04:20:17;;;;;;;;;;;;;;;;;;2116279;28;19928;-43
2022/08/19 04:21:18;;;;;;;;;;;;;;;;;;2116220;28;20419;-45
2022/08/19 04:22:19;;;;;;;;;;;;;;;;;;2115930;28;20277;-44
2022/08/19 04:23:20;;;;;;;;;;;;;;;;;;2115881;28;19970;-45
2022/08/19 04:24:21;;;;;;;;;;;;;;;;;;2116324;28;19924;-43
2022/08/19 04:25:21;;;;;;;;;;;;;;;;;;2116115;28;19931;-43
2022/08/19 04:26:22;;;;;;;;;;;;;;;;;;2115926;28;20008;-43
2022/08/19 04:27:23;;;;;;;;;;;;;;;;;;2116381;28;20010;-43
2022/08/19 04:28:24;;;;;;;;;;;;;;;;;;2115929;28;20055;-44
2022/08/19 04:29:26;;;;;;;;;;;;;;;;;;2115868;28;20211;-44
2022/08/19 04:30:27;;;;;;;;;;;;;;;;;;2115859;28;20372;-44
2022/08/19 04:31:28;;;;;;;;;;;;;;;;;;2115953;28;19924;-44
2022/08/19 04:32:31;;;;;;;;;;;;;;;;;;2116377;28;20440;-43
2022/08/19 04:33:32;;;;;;;;;;;;;;;;;;2116495;28;20055;-44
2022/08/19 04:34:33;;;;;;;;;;;;;;;;;;2115876;28;19945;-44
2022/08/19 04:35:34;;;;;;;;;;;;;;;;;;2116022;28;20368;-45
2022/08/19 04:36:35;;;;;;;;;;;;;;;;;;2115733;28;20065;-43
2022/08/19 04:37:36;;;;;;;;;;;;;;;;;;2115878;28;19992;-43
2022/08/19 04:38:37;;;;;;;;;;;;;;;;;;2115903;28;19927;-44
2022/08/19 04:43:38;;;;;;;;;;;;;;;;;;2115795;28;20355;-45
2022/08/19 04:44:38;;;;;;;;;;;;;;;;;;2115919;28;19924;-44
2022/08/19 04:45:46;;;;;;;;;;;;;;;;;;2115707;28;20451;-44
2022/08/19 04:46:47;;;;;;;;;;;;;;;;;;2115769;28;19967;-43
2022/08/19 04:47:52;;;;;;;;;;;;;;;;;;2115822;28;19931;-44
2022/08/19 04:49:13;;;;;;;;;;;;;;;;;;2115876;28;19923;-44
2022/08/19 04:50:14;;;;;;;;;;;;;;;;;;2115969;28;19924;-44
2022/08/19 04:51:15;;;;;;;;;;;;;;;;;;2115872;28;20300;-45
2022/08/19 04:52:15;;;;;;;;;;;;;;;;;;2115764;28;19989;-44
2022/08/19 04:53:16;;;;;;;;;;;;;;;;;;2115939;28;19981;-43
2022/08/19 04:54:17;;;;;;;;;;;;;;;;;;2116221;28;20010;-44
2022/08/19 04:55:29;;;;;;;;;;;;;;;;;;2115906;28;19924;-44
2022/08/19 04:56:30;;;;;;;;;;;;;;;;;;2115800;28;20006;-45
2022/08/19 04:57:32;;;;;;;;;;;;;;;;;;2115932;28;19924;-46
2022/08/19 04:58:32;;;;;;;;;;;;;;;;;;2116295;28;20008;-44
2022/08/19 04:59:33;;;;;;;;;;;;;;;;;;2115866;28;20060;-43
2022/08/19 05:00:34;;;;;;;;;;;;;;;;;;2115795;28;20014;-44
2022/08/19 05:01:36;;;;;;;;;;;;;;;;;;2115789;28;20326;-44
2022/08/19 05:02:36;;;;;;;;;;;;;;;;;;2115889;28;20006;-44
2022/08/19 05:03:38;;;;;;;;;;;;;;;;;;2115883;28;19930;-47
2022/08/19 05:04:39;;;;;;;;;;;;;;;;;;2115856;28;20447;-44
2022/08/19 05:05:40;;;;;;;;;;;;;;;;;;2115670;28;20010;-44
2022/08/19 05:06:45;;;;;;;;;;;;;;;;;;2116115;28;19924;-45
2022/08/19 05:07:46;;;;;;;;;;;;;;;;;;2115767;28;20301;-44
2022/08/19 05:08:46;;;;;;;;;;;;;;;;;;2115987;28;19932;-43
2022/08/19 05:09:48;;;;;;;;;;;;;;;;;;2115673;28;19924;-44
2022/08/19 05:10:59;;;;;;;;;;;;;;;;;;2116133;28;20592;-43
2022/08/19 05:12:00;;;;;;;;;;;;;;;;;;2107512;28;19992;-44
2022/08/19 05:13:01;;;;;;;;;;;;;;;;;;2113935;28;19974;-43
2022/08/19 05:14:02;;;;;;;;;;;;;;;;;;2115681;28;20334;-43
2022/08/19 05:15:03;;;;;;;;;;;;;;;;;;2115832;28;19927;-44
2022/08/19 05:16:04;;;;;;;;;;;;;;;;;;2115742;28;19924;-43
2022/08/19 05:17:04;;;;;;;;;;;;;;;;;;2115495;28;19970;-43
2022/08/19 05:22:35;;;;;;;;;;;;;;;;;;2116313;28;20393;-44
2022/08/19 05:23:36;;;;;;;;;;;;;;;;;;2115731;28;20042;-44
2022/08/19 05:24:37;;;;;;;;;;;;;;;;;;2115604;28;19970;-43
2022/08/19 05:25:48;;;;;;;;;;;;;;;;;;2115551;28;19924;-45
2022/08/19 05:26:48;;;;;;;;;;;;;;;;;;2115863;28;20069;-44
2022/08/19 05:27:49;;;;;;;;;;;;;;;;;;2115577;28;19976;-44
2022/08/19 05:28:50;;;;;;;;;;;;;;;;;;2115869;28;19923;-48
2022/08/19 05:29:55;;;;;;;;;;;;;;;;;;2115617;28;19927;-44
2022/08/19 05:30:56;;;;;;;;;;;;;;;;;;2115640;28;19999;-45
2022/08/19 05:31:57;;;;;;;;;;;;;;;;;;2115686;28;19935;-44
2022/08/19 05:32:57;;;;;;;;;;;;;;;;;;2115543;28;20007;-45
2022/08/19 05:33:59;;;;;;;;;;;;;;;;;;2115787;28;20185;-45
2022/08/19 05:35:00;;;;;;;;;;;;;;;;;;2115710;28;20018;-43
2022/08/19 05:36:00;;;;;;;;;;;;;;;;;;2115666;28;19981;-44
2022/08/19 05:37:01;;;;;;;;;;;;;;;;;;2115324;28;19970;-43
2022/08/19 05:38:02;;;;;;;;;;;;;;;;;;2116048;28;20007;-43
2022/08/19 05:39:03;;;;;;;;;;;;;;;;;;2115438;28;19924;-44
2022/08/19 05:40:04;;;;;;;;;;;;;;;;;;2115709;28;19932;-44
2022/08/19 05:41:06;;;;;;;;;;;;;;;;;;2116135;28;19924;-43
2022/08/19 05:42:06;;;;;;;;;;;;;;;;;;2115694;28;20175;-47
2022/08/19 05:43:07;;;;;;;;;;;;;;;;;;2115239;28;19924;-47
2022/08/19 05:44:09;;;;;;;;;;;;;;;;;;2115633;28;19993;-43
2022/08/19 05:45:10;;;;;;;;;;;;;;;;;;2115994;28;20023;-45
2022/08/19 05:46:11;;;;;;;;;;;;;;;;;;2115208;28;20003;-44
2022/08/19 05:47:12;;;;;;;;;;;;;;;;;;2115765;28;19924;-45
2022/08/19 05:48:13;;;;;;;;;;;;;;;;;;2115547;28;20010;-44
2022/08/19 05:49:15;;;;;;;;;;;;;;;;;;2115448;28;19974;-43
2022/08/19 05:50:17;;;;;;;;;;;;;;;;;;2115845;28;19976;-45
2022/08/19 05:51:18;;;;;;;;;;;;;;;;;;2115453;28;20014;-45
2022/08/19 05:52:19;;;;;;;;;;;;;;;;;;2115504;28;20010;-44
2022/08/19 05:53:26;;;;;;;;;;;;;;;;;;2115373;28;19924;-44
2022/08/19 05:54:27;;;;;;;;;;;;;;;;;;2115379;28;19934;-46
2022/08/19 05:55:28;;;;;;;;;;;;;;;;;;2116097;28;19943;-44
2022/08/19 05:56:30;;;;;;;;;;;;;;;;;;2115637;28;19937;-43
2022/08/19 05:57:31;;;;;;;;;;;;;;;;;;2115792;28;19995;-43
2022/08/19 05:58:32;;;;;;;;;;;;;;;;;;2115327;28;20375;-46
2022/08/19 05:59:35;;;;;;;;;;;;;;;;;;2115513;28;20007;-43
2022/08/19 06:00:36;;;;;;;;;;;;;;;;;;2115668;28;20022;-45
2022/08/19 06:01:36;;;;;;;;;;;;;;;;;;2115645;28;20027;-44
2022/08/19 06:02:37;;;;;;;;;;;;;;;;;;2115646;28;20349;-45
2022/08/19 06:03:39;;;;;;;;;;;;;;;;;;2115568;28;19924;-45
2022/08/19 06:04:42;;;;;;;;;;;;;;;;;;2115182;28;19968;-46
2022/08/19 06:05:43;;;;;;;;;;;;;;;;;;2115477;28;20018;-44
2022/08/19 06:06:52;;;;;;;;;;;;;;;;;;2115611;28;19924;-44
2022/08/19 06:07:53;;;;;;;;;;;;;;;;;;2115368;28;20007;-45
2022/08/19 06:08:54;;;;;;;;;;;;;;;;;;2115054;28;19924;-43
2022/08/19 06:09:55;;;;;;;;;;;;;;;;;;2115418;28;20058;-43
2022/08/19 06:11:00;;;;;;;;;;;;;;;;;;2106911;28;19931;-44
2022/08/19 06:12:02;;;;;;;;;;;;;;;;;;2115607;28;19934;-44
2022/08/19 06:13:05;;;;;;;;;;;;;;;;;;2115232;28;20391;-43
2022/08/19 06:14:08;;;;;;;;;;;;;;;;;;2115306;28;20018;-43
2022/08/19 06:15:09;;;;;;;;;;;;;;;;;;2115449;28;20010;-44
2022/08/19 06:16:10;;;;;;;;;;;;;;;;;;2115153;28;19923;-44
2022/08/19 06:17:11;;;;;;;;;;;;;;;;;;2115306;28;19930;-45
2022/08/19 06:18:12;;;;;;;;;;;;;;;;;;2115360;28;20447;-44
2022/08/19 06:19:13;;;;;;;;;;;;;;;;;;2115236;28;20022;-44
2022/08/19 06:20:14;;;;;;;;;;;;;;;;;;2115568;28;19923;-45
2022/08/19 06:21:15;;;;;;;;;;;;;;;;;;2115774;28;20280;-44
2022/08/19 06:22:16;;;;;;;;;;;;;;;;;;2115214;28;19967;-43
2022/08/19 06:23:18;;;;;;;;;;;;;;;;;;2115288;28;20173;-43
2022/08/19 06:24:19;;;;;;;;;;;;;;;;;;2115190;28;20007;-43
2022/08/19 06:25:20;;;;;;;;;;;;;;;;;;2115383;28;19958;-43
2022/08/19 06:26:21;;;;;;;;;;;;;;;;;;2115879;28;19968;-47
2022/08/19 06:27:22;;;;;;;;;;;;;;;;;;2115483;28;19927;-43
2022/08/19 06:28:23;;;;;;;;;;;;;;;;;;2115259;28;20033;-43
2022/08/19 06:29:24;;;;;;;;;;;;;;;;;;2114652;28;20007;-44
2022/08/19 06:30:25;;;;;;;;;;;;;;;;;;2115233;28;20018;-45
2022/08/19 06:31:26;;;;;;;;;;;;;;;;;;2115278;28;19923;-43
2022/08/19 06:32:27;;;;;;;;;;;;;;;;;;2115104;28;20371;-43
2022/08/19 06:33:28;;;;;;;;;;;;;;;;;;2115459;28;20011;-44
2022/08/19 06:34:29;;;;;;;;;;;;;;;;;;2115249;28;20395;-45
2022/08/19 06:35:30;;;;;;;;;;;;;;;;;;2115209;28;20296;-45
2022/08/19 06:36:32;;;;;;;;;;;;;;;;;;2115206;28;19924;-45
2022/08/19 06:37:33;;;;;;;;;;;;;;;;;;2115356;28;19927;-46
2022/08/19 06:38:34;;;;;;;;;;;;;;;;;;2115109;28;20254;-44
2022/08/19 06:39:35;;;;;;;;;;;;;;;;;;2115707;28;20284;-44
2022/08/19 06:40:37;;;;;;;;;;;;;;;;;;2115905;28;19927;-44
2022/08/19 06:41:38;;;;;;;;;;;;;;;;;;2115044;28;19924;-43
2022/08/19 06:42:44;;;;;;;;;;;;;;;;;;2115272;28;19931;-43
2022/08/19 06:43:49;;;;;;;;;;;;;;;;;;2115126;28;20019;-46
2022/08/19 06:44:50;;;;;;;;;;;;;;;;;;2115155;28;19924;-43
2022/08/19 06:45:54;;;;;;;;;;;;;;;;;;2115150;28;19924;-43
2022/08/19 06:46:55;;;;;;;;;;;;;;;;;;2115064;28;19927;-45
2022/08/19 06:47:56;;;;;;;;;;;;;;;;;;2114982;28;19935;-45
2022/08/19 06:48:57;;;;;;;;;;;;;;;;;;2115078;28;19932;-45
2022/08/19 06:50:01;;;;;;;;;;;;;;;;;;2115195;28;20408;-43
2022/08/19 06:51:05;;;;;;;;;;;;;;;;;;2115378;28;20554;-44
2022/08/19 06:52:06;;;;;;;;;;;;;;;;;;2115246;28;20269;-45
2022/08/19 06:53:07;;;;;;;;;;;;;;;;;;2115093;28;20024;-45
2022/08/19 06:54:08;;;;;;;;;;;;;;;;;;2115147;28;20010;-45
2022/08/19 06:55:20;;;;;;;;;;;;;;;;;;2115115;28;19937;-47
2022/08/19 06:56:20;;;;;;;;;;;;;;;;;;2114832;28;20460;-45
2022/08/19 06:57:21;;;;;;;;;;;;;;;;;;2115707;28;19930;-45
2022/08/19 06:58:22;;;;;;;;;;;;;;;;;;2115118;28;19982;-44
2022/08/19 06:59:26;;;;;;;;;;;;;;;;;;2115102;28;19931;-43
2022/08/19 07:00:27;;;;;;;;;;;;;;;;;;2115411;28;19962;-45
2022/08/19 07:01:28;;;;;;;;;;;;;;;;;;2115135;28;20001;-45
2022/08/19 07:02:29;;;;;;;;;;;;;;;;;;2115064;28;19923;-45
2022/08/19 07:03:31;;;;;;;;;;;;;;;;;;2115052;28;20344;-46
2022/08/19 07:04:32;;;;;;;;;;;;;;;;;;2115190;28;20010;-44
2022/08/19 07:05:33;;;;;;;;;;;;;;;;;;2114760;28;20010;-44
2022/08/19 07:06:34;;;;;;;;;;;;;;;;;;2114930;28;20486;-43
2022/08/19 07:07:44;;;;;;;;;;;;;;;;;;2115470;28;19939;-43
2022/08/19 07:08:46;;;;;;;;;;;;;;;;;;2115033;28;19923;-44
2022/08/19 07:09:47;;;;;;;;;;;;;;;;;;2115070;28;19931;-44
2022/08/19 07:10:59;;;;;;;;;;;;;;;;;;2115031;28;19936;-44
2022/08/19 07:12:00;;;;;;;;;;;;;;;;;;2106713;28;20038;-45